Main page
METAR-TAF:

METAR-TAF

Airports :

Skyhaven Airport

Rochester, New Hampshire, United States

latitude: 43-16-41N, longitude: 070-55-20W, elevation: 321 ft

Current weather observation

The report was made 43 minutes ago, at 20:51 UTC
Wind 5 mph from the South/Southeast
Temperature 46°F
Humidity 93%
Pressure 29.87 in. Hg
light rain, fog

METAR: KDAW 092051Z AUTO 16004KT M1/4SM -RA FG VV003 08/07 A2987 RMK AO2 SLP114 P0005 60021 T00780072 56047

Time: 16:34 (21:34 UTC)


TAF: missing

Weather observations and forecasts of more than 4000 airports (METAR and TAF reports).

The available stations are represented by yellow and red dots on the map.

Hover mouse over dot to see the name of the station.

Then click to see weather observations and forecasts.

To change the map : click on the green buttons with a black cross to zoom in, on the green button with a dash to zoom out, or on the green arrows for adjacent maps.


METAR-TAF: